createdAt,value
2023-02-18T00:00:18.683Z,84.354
2023-02-18T00:01:19.352Z,84.385
2023-02-18T00:02:19.072Z,84.206
2023-02-18T00:03:19.010Z,84.215
2023-02-18T00:04:18.744Z,84.225
2023-02-18T00:05:18.439Z,84.311
2023-02-18T00:06:19.149Z,84.200
2023-02-18T00:07:18.912Z,84.215
2023-02-18T00:08:18.580Z,84.198
2023-02-18T00:09:19.265Z,84.339
2023-02-18T00:10:18.972Z,84.024
2023-02-18T00:11:18.667Z,84.208
2023-02-18T00:12:19.347Z,84.145
2023-02-18T00:13:19.138Z,84.175
2023-02-18T00:14:19.580Z,84.192
2023-02-18T00:15:19.291Z,84.126
2023-02-18T00:16:19.324Z,84.160
2023-02-18T00:17:19.028Z,84.356
2023-02-18T00:18:18.775Z,84.316
2023-02-18T00:19:18.465Z,84.332
2023-02-18T00:20:19.113Z,84.305
2023-02-18T00:21:18.915Z,84.372
2023-02-18T00:22:18.563Z,84.534
2023-02-18T00:23:19.319Z,84.703
2023-02-18T00:24:19.846Z,84.770
2023-02-18T00:25:18.477Z,84.799
2023-02-18T00:26:19.214Z,84.650
2023-02-18T00:27:18.845Z,84.663
2023-02-18T00:28:18.496Z,84.444
2023-02-18T00:29:19.159Z,84.433
2023-02-18T00:30:19.090Z,84.475
2023-02-18T00:31:19.166Z,84.496
2023-02-18T00:32:19.668Z,84.496
2023-02-18T00:33:18.440Z,84.450
2023-02-18T00:34:19.237Z,84.461
2023-02-18T00:35:18.925Z,84.509
2023-02-18T00:36:18.688Z,84.494
2023-02-18T00:37:18.687Z,84.560
2023-02-18T00:38:18.752Z,84.749
2023-02-18T00:39:18.475Z,84.805
2023-02-18T00:40:19.520Z,85.011
2023-02-18T00:41:19.262Z,84.845
2023-02-18T00:42:18.951Z,84.764
2023-02-18T00:43:18.668Z,84.824
2023-02-18T00:44:19.399Z,84.927
2023-02-18T00:45:19.119Z,84.934
2023-02-18T00:46:18.899Z,84.751
2023-02-18T00:47:18.820Z,84.881
2023-02-18T00:48:18.528Z,84.419
2023-02-18T00:49:19.182Z,84.532
2023-02-18T00:50:18.911Z,84.677
2023-02-18T00:51:18.552Z,84.770
2023-02-18T00:52:19.199Z,84.799
2023-02-18T00:53:19.000Z,84.436
2023-02-18T00:54:18.689Z,84.871
2023-02-18T00:55:19.396Z,84.957
2023-02-18T00:56:19.077Z,85.058
2023-02-18T00:57:18.736Z,84.963
2023-02-18T00:58:18.429Z,84.799
2023-02-18T00:59:19.347Z,84.930
2023-02-18T01:00:19.050Z,84.818
2023-02-18T01:01:18.857Z,84.753
2023-02-18T01:02:18.738Z,84.906
2023-02-18T01:03:18.657Z,85.339
2023-02-18T01:04:19.403Z,85.609
2023-02-18T01:05:19.217Z,85.739
2023-02-18T01:06:18.793Z,86.107
2023-02-18T01:07:18.493Z,86.166
2023-02-18T01:08:19.213Z,86.184
2023-02-18T01:09:18.986Z,86.187
2023-02-18T01:10:20.836Z,86.197
2023-02-18T01:11:18.484Z,86.231
2023-02-18T01:12:19.095Z,86.000
2023-02-18T01:13:18.776Z,86.056
2023-02-18T01:14:18.717Z,86.350
2023-02-18T01:15:18.402Z,86.002
2023-02-18T01:16:19.207Z,85.838
2023-02-18T01:17:18.895Z,85.493
2023-02-18T01:18:18.552Z,85.358
2023-02-18T01:19:19.335Z,85.337
2023-02-18T01:20:18.957Z,85.220
2023-02-18T01:21:18.602Z,85.083
2023-02-18T01:22:19.266Z,84.988
2023-02-18T01:23:18.888Z,84.782
2023-02-18T01:24:18.605Z,84.879
2023-02-18T01:25:19.232Z,85.135
2023-02-18T01:26:18.916Z,85.032
2023-02-18T01:27:18.708Z,84.948
2023-02-18T01:28:18.581Z,85.035
2023-02-18T01:29:19.336Z,84.934
2023-02-18T01:30:19.135Z,84.955
2023-02-18T01:31:19.044Z,84.974
2023-02-18T01:32:19.154Z,84.961
2023-02-18T01:33:18.928Z,84.948
2023-02-18T01:34:18.691Z,85.058
2023-02-18T01:35:20.073Z,84.972
2023-02-18T01:36:18.735Z,84.953
2023-02-18T01:37:18.608Z,84.860
2023-02-18T01:38:19.249Z,84.768
2023-02-18T01:39:18.984Z,84.810
2023-02-18T01:40:18.711Z,84.974
2023-02-18T01:41:19.377Z,85.146
2023-02-18T01:42:18.991Z,85.077
2023-02-18T01:43:18.675Z,85.230
2023-02-18T01:44:19.412Z,85.659
2023-02-18T01:45:19.095Z,85.958
2023-02-18T01:46:18.851Z,86.237
2023-02-18T01:47:18.688Z,86.510
2023-02-18T01:48:19.304Z,86.584
2023-02-18T01:49:18.972Z,86.744
2023-02-18T01:50:18.629Z,86.916
2023-02-18T01:51:19.261Z,86.935
2023-02-18T01:52:18.933Z,87.153
2023-02-18T01:53:18.577Z,87.181
2023-02-18T01:54:19.212Z,87.338
2023-02-18T01:55:19.661Z,87.421
2023-02-18T01:56:19.260Z,87.484
2023-02-18T01:57:18.940Z,87.576
2023-02-18T01:58:18.665Z,87.656
2023-02-18T01:59:19.293Z,87.875
2023-02-18T02:00:18.997Z,88.001
2023-02-18T02:01:18.650Z,88.020
2023-02-18T02:02:19.440Z,88.291
2023-02-18T02:03:19.144Z,88.385
2023-02-18T02:04:18.760Z,88.720
2023-02-18T02:05:18.411Z,88.894
2023-02-18T02:06:18.930Z,89.220
2023-02-18T02:07:18.600Z,89.296
2023-02-18T02:08:19.224Z,89.632
2023-02-18T02:09:18.836Z,89.642
2023-02-18T02:10:18.495Z,89.687
2023-02-18T02:11:19.128Z,89.951
2023-02-18T02:12:18.739Z,89.901
2023-02-18T02:13:18.371Z,89.768
2023-02-18T02:14:19.005Z,89.623
2023-02-18T02:15:18.609Z,89.750
2023-02-18T02:16:19.409Z,89.829
2023-02-18T02:17:19.324Z,89.924
2023-02-18T02:18:18.890Z,90.195
2023-02-18T02:19:18.579Z,90.412
2023-02-18T02:20:19.241Z,90.592
2023-02-18T02:21:18.949Z,90.866
2023-02-18T02:22:18.622Z,91.267
2023-02-18T02:23:19.297Z,91.436
2023-02-18T02:24:18.944Z,91.601
2023-02-18T02:25:18.594Z,91.906
2023-02-18T02:26:19.355Z,91.707
2023-02-18T02:27:19.097Z,91.831
2023-02-18T02:28:18.775Z,91.957
2023-02-18T02:29:18.362Z,92.037
2023-02-18T02:30:19.120Z,91.961
2023-02-18T02:31:19.070Z,92.224
2023-02-18T02:32:18.733Z,92.487
2023-02-18T02:33:18.343Z,92.419
2023-02-18T02:34:19.089Z,92.545
2023-02-18T02:35:18.707Z,92.787
2023-02-18T02:36:18.399Z,92.791
2023-02-18T02:37:19.032Z,92.856
2023-02-18T02:38:18.678Z,93.062
2023-02-18T02:39:19.403Z,93.126
2023-02-18T02:40:19.212Z,93.105
2023-02-18T02:41:18.916Z,93.172
2023-02-18T02:42:18.575Z,93.304
2023-02-18T02:43:19.257Z,93.220
2023-02-18T02:44:18.983Z,93.344
2023-02-18T02:45:18.679Z,93.540
2023-02-18T02:46:19.569Z,93.493
2023-02-18T02:47:19.220Z,93.414
2023-02-18T02:48:18.863Z,93.317
2023-02-18T02:49:18.673Z,93.544
2023-02-18T02:50:19.319Z,93.559
2023-02-18T02:51:18.991Z,93.485
2023-02-18T02:52:18.704Z,93.628
2023-02-18T02:53:19.342Z,93.571
2023-02-18T02:54:19.111Z,93.422
2023-02-18T02:55:18.809Z,93.506
2023-02-18T02:56:18.493Z,93.527
2023-02-18T02:58:19.047Z,93.559
2023-02-18T02:59:18.725Z,93.483
2023-02-18T03:00:18.473Z,93.344
2023-02-18T03:01:18.930Z,93.256
2023-02-18T03:02:18.623Z,93.435
2023-02-18T03:03:18.564Z,93.548
2023-02-18T03:04:19.269Z,93.186
2023-02-18T03:05:18.878Z,93.060
2023-02-18T03:06:19.336Z,93.145
2023-02-18T03:07:18.920Z,93.350
2023-02-18T03:08:19.167Z,93.163
2023-02-18T03:09:18.809Z,93.294
2023-02-18T03:10:18.559Z,93.239
2023-02-18T03:11:19.320Z,93.044
2023-02-18T03:12:19.113Z,93.086
2023-02-18T03:13:18.840Z,93.081
2023-02-18T03:14:18.516Z,93.222
2023-02-18T03:15:19.224Z,93.071
2023-02-18T03:16:23.874Z,92.943
2023-02-18T03:17:18.763Z,92.947
2023-02-18T03:18:18.379Z,93.031
2023-02-18T03:19:19.020Z,92.684
2023-02-18T03:20:18.784Z,92.281
2023-02-18T03:21:18.516Z,91.902
2023-02-18T03:22:19.044Z,92.079
2023-02-18T03:23:18.744Z,91.793
2023-02-18T03:25:19.003Z,92.306
2023-02-18T03:26:18.658Z,92.253
2023-02-18T03:27:18.402Z,92.104
2023-02-18T03:28:19.076Z,92.095
2023-02-18T03:29:18.770Z,92.190
2023-02-18T03:30:18.622Z,92.144
2023-02-18T03:31:18.703Z,91.873
2023-02-18T03:32:19.239Z,92.119
2023-02-18T03:33:18.884Z,92.154
2023-02-18T03:34:18.596Z,92.383
2023-02-18T03:35:19.310Z,92.434
2023-02-18T03:36:19.122Z,92.268
2023-02-18T03:37:18.595Z,92.270
2023-02-18T03:38:19.238Z,91.765
2023-02-18T03:39:19.031Z,91.765
2023-02-18T03:40:18.837Z,91.847
2023-02-18T03:41:18.661Z,91.919
2023-02-18T03:42:18.456Z,91.383
2023-02-18T03:43:19.102Z,91.610
2023-02-18T03:44:18.797Z,91.711
2023-02-18T03:45:18.564Z,91.410
2023-02-18T03:46:19.557Z,91.148
2023-02-18T03:47:19.376Z,90.553
2023-02-18T03:48:19.203Z,90.509
2023-02-18T03:49:18.885Z,90.897
2023-02-18T03:50:18.517Z,90.826
2023-02-18T03:51:19.183Z,90.624
2023-02-18T03:52:18.868Z,90.735
2023-02-18T03:53:18.575Z,90.727
2023-02-18T03:54:19.192Z,90.677
2023-02-18T03:55:18.873Z,90.807
2023-02-18T03:56:18.639Z,91.244
2023-02-18T03:57:19.347Z,91.225
2023-02-18T03:58:19.007Z,91.276
2023-02-18T03:59:18.776Z,91.810
2023-02-18T04:00:18.463Z,91.904
2023-02-18T04:01:19.204Z,92.024
2023-02-18T04:02:19.030Z,92.398
2023-02-18T04:03:18.892Z,92.445
2023-02-18T04:04:18.649Z,92.524
2023-02-18T04:05:18.544Z,92.312
2023-02-18T04:06:19.333Z,92.522
2023-02-18T04:07:19.016Z,92.407
2023-02-18T04:08:18.706Z,92.453
2023-02-18T04:09:19.526Z,92.318
2023-02-18T04:10:19.305Z,92.081
2023-02-18T04:11:18.945Z,92.053
2023-02-18T04:12:19.472Z,92.171
2023-02-18T04:13:19.168Z,91.784
2023-02-18T04:14:18.853Z,91.845
2023-02-18T04:15:18.536Z,92.184
2023-02-18T04:16:22.989Z,92.253
2023-02-18T04:17:21.807Z,92.413
2023-02-18T04:18:18.926Z,92.455
2023-02-18T04:19:18.703Z,92.556
2023-02-18T04:20:18.460Z,92.634
2023-02-18T04:21:19.135Z,92.648
2023-02-18T04:22:18.915Z,92.705
2023-02-18T04:23:18.588Z,92.726
2023-02-18T04:24:19.316Z,92.693
2023-02-18T04:25:19.398Z,92.850
2023-02-18T04:26:19.115Z,93.020
2023-02-18T04:27:19.015Z,92.928
2023-02-18T04:28:19.329Z,93.321
2023-02-18T04:29:19.208Z,93.445
2023-02-18T04:30:20.726Z,93.510
2023-02-18T04:31:19.042Z,93.672
2023-02-18T04:32:19.162Z,93.847
2023-02-18T04:33:18.820Z,93.790
2023-02-18T04:34:18.524Z,93.855
2023-02-18T04:35:19.205Z,93.876
2023-02-18T04:36:18.860Z,93.964
2023-02-18T04:37:18.453Z,93.950
2023-02-18T04:38:18.783Z,93.882
2023-02-18T04:39:18.357Z,93.929
2023-02-18T04:40:19.092Z,93.901
2023-02-18T04:41:18.712Z,93.945
2023-02-18T04:42:18.420Z,93.964
2023-02-18T04:43:19.168Z,93.933
2023-02-18T04:44:18.856Z,93.685
2023-02-18T04:45:18.476Z,93.540
2023-02-18T04:46:19.269Z,93.704
2023-02-18T04:47:19.223Z,93.537
2023-02-18T04:48:18.980Z,93.413
2023-02-18T04:49:18.627Z,93.376
2023-02-18T04:50:19.315Z,93.325
2023-02-18T04:51:18.945Z,93.174
2023-02-18T04:52:18.623Z,93.176
2023-02-18T04:53:19.307Z,93.002
2023-02-18T04:54:19.007Z,93.130
2023-02-18T04:55:18.938Z,92.613
2023-02-18T04:56:18.686Z,92.669
2023-02-18T04:57:19.348Z,92.285
2023-02-18T04:58:19.009Z,92.259
2023-02-18T04:59:18.740Z,92.402
2023-02-18T05:00:18.693Z,91.984
2023-02-18T05:01:19.385Z,91.786
2023-02-18T05:02:19.205Z,92.096
2023-02-18T05:03:19.013Z,92.228
2023-02-18T05:04:18.786Z,92.159
2023-02-18T05:05:18.598Z,91.629
2023-02-18T05:06:19.218Z,91.944
2023-02-18T05:07:19.057Z,91.984
2023-02-18T05:08:18.661Z,91.848
2023-02-18T05:09:19.350Z,92.238
2023-02-18T05:10:19.043Z,92.333
2023-02-18T05:11:18.807Z,92.650
2023-02-18T05:12:18.659Z,92.882
2023-02-18T05:13:19.355Z,93.157
2023-02-18T05:14:19.027Z,92.985
2023-02-18T05:15:18.743Z,93.186
2023-02-18T05:16:18.707Z,93.584
2023-02-18T05:17:18.499Z,93.588
2023-02-18T05:18:18.916Z,93.712
2023-02-18T05:19:18.719Z,93.762
2023-02-18T05:20:18.400Z,93.950
2023-02-18T05:21:19.048Z,94.029
2023-02-18T05:23:19.372Z,94.271
2023-02-18T05:24:19.073Z,94.406
2023-02-18T05:25:18.888Z,94.465
2023-02-18T05:26:18.600Z,94.443
2023-02-18T05:27:18.454Z,94.488
2023-02-18T05:28:19.361Z,94.528
2023-02-18T05:29:19.088Z,94.582
2023-02-18T05:30:19.025Z,94.570
2023-02-18T05:31:19.004Z,94.549
2023-02-18T05:32:19.165Z,94.708
2023-02-18T05:33:18.736Z,94.738
2023-02-18T05:34:18.433Z,94.776
2023-02-18T05:35:19.053Z,94.786
2023-02-18T05:36:18.714Z,94.776
2023-02-18T05:37:18.469Z,94.855
2023-02-18T05:38:19.176Z,94.811
2023-02-18T05:39:18.864Z,94.706
2023-02-18T05:40:18.653Z,94.650
2023-02-18T05:41:19.351Z,94.679
2023-02-18T05:42:19.006Z,94.645
2023-02-18T05:43:18.666Z,94.601
2023-02-18T05:44:19.279Z,94.658
2023-02-18T05:45:18.956Z,94.824
2023-02-18T05:46:18.907Z,94.908
2023-02-18T05:47:18.748Z,94.923
2023-02-18T05:48:18.414Z,94.975
2023-02-18T05:49:19.092Z,94.591
2023-02-18T05:50:18.755Z,94.496
2023-02-18T05:51:18.497Z,94.622
2023-02-18T05:52:19.140Z,94.534
2023-02-18T05:53:19.431Z,94.587
2023-02-18T05:54:19.157Z,94.719
2023-02-18T05:55:18.793Z,94.778
2023-02-18T05:56:18.421Z,94.797
2023-02-18T05:57:19.168Z,94.656
2023-02-18T05:58:18.957Z,94.727
2023-02-18T05:59:18.838Z,94.662
2023-02-18T06:00:19.915Z,94.698
2023-02-18T06:01:18.682Z,94.708
2023-02-18T06:02:19.488Z,94.694
2023-02-18T06:03:19.248Z,94.698
2023-02-18T06:04:18.878Z,94.698
2023-02-18T06:05:18.473Z,94.565
2023-02-18T06:06:19.479Z,94.380
2023-02-18T06:07:19.072Z,94.568
2023-02-18T06:08:18.799Z,94.784
2023-02-18T06:09:18.515Z,94.807
2023-02-18T06:10:19.131Z,94.834
2023-02-18T06:11:18.780Z,94.851
2023-02-18T06:12:18.447Z,94.977
2023-02-18T06:13:19.057Z,95.083
2023-02-18T06:14:18.768Z,95.093
2023-02-18T06:15:19.372Z,95.114
2023-02-18T06:16:19.137Z,95.173
2023-02-18T06:17:18.867Z,95.112
2023-02-18T06:18:18.637Z,95.205
2023-02-18T06:19:19.348Z,95.137
2023-02-18T06:20:18.964Z,95.200
2023-02-18T06:21:18.643Z,95.074
2023-02-18T06:22:19.257Z,94.978
2023-02-18T06:23:20.500Z,94.908
2023-02-18T06:25:18.840Z,94.822
2023-02-18T06:26:18.621Z,94.862
2023-02-18T06:27:19.225Z,94.668
2023-02-18T06:28:18.891Z,94.399
2023-02-18T06:29:18.620Z,94.441
2023-02-18T06:30:19.360Z,94.235
2023-02-18T06:31:19.665Z,94.158
2023-02-18T06:32:18.900Z,94.465
2023-02-18T06:33:18.536Z,94.366
2023-02-18T06:34:19.356Z,94.135
2023-02-18T06:35:19.107Z,94.015
2023-02-18T06:36:18.905Z,93.851
2023-02-18T06:37:20.601Z,93.321
2023-02-18T06:38:18.524Z,93.655
2023-02-18T06:39:19.175Z,93.382
2023-02-18T06:40:18.759Z,93.224
2023-02-18T06:41:18.463Z,93.205
2023-02-18T06:42:19.134Z,93.678
2023-02-18T06:43:18.823Z,93.453
2023-02-18T06:44:18.647Z,93.073
2023-02-18T06:45:19.276Z,93.388
2023-02-18T06:46:19.140Z,93.439
2023-02-18T06:47:18.844Z,93.510
2023-02-18T06:48:18.564Z,93.453
2023-02-18T06:49:19.233Z,93.325
2023-02-18T06:50:18.977Z,93.441
2023-02-18T06:51:18.873Z,93.027
2023-02-18T06:52:18.513Z,93.252
2023-02-18T06:53:19.132Z,92.812
2023-02-18T06:54:18.753Z,92.812
2023-02-18T06:55:19.360Z,92.667
2023-02-18T06:56:18.982Z,92.720
2023-02-18T06:57:18.632Z,92.766
2023-02-18T06:58:19.402Z,92.711
2023-02-18T06:59:19.039Z,92.690
2023-02-18T07:00:18.744Z,92.837
2023-02-18T07:01:18.628Z,92.631
2023-02-18T07:02:18.358Z,91.803
2023-02-18T07:03:19.119Z,91.955
2023-02-18T07:04:19.100Z,91.684
2023-02-18T07:05:18.792Z,91.917
2023-02-18T07:06:18.527Z,91.606
2023-02-18T07:07:19.168Z,91.122
2023-02-18T07:08:18.772Z,90.868
2023-02-18T07:09:18.503Z,90.921
2023-02-18T07:10:19.183Z,91.055
2023-02-18T07:11:19.016Z,91.398
2023-02-18T07:12:18.691Z,90.571
2023-02-18T07:13:18.520Z,90.466
2023-02-18T07:14:19.452Z,90.927
2023-02-18T07:15:19.256Z,90.786
2023-02-18T07:16:18.960Z,90.817
2023-02-18T07:17:18.807Z,90.281
2023-02-18T07:18:18.446Z,90.710
2023-02-18T07:19:19.505Z,90.733
2023-02-18T07:20:19.269Z,91.126
2023-02-18T07:21:19.002Z,90.792
2023-02-18T07:22:18.988Z,90.763
2023-02-18T07:23:18.633Z,90.525
2023-02-18T07:24:19.317Z,90.805
2023-02-18T07:25:18.994Z,90.723
2023-02-18T07:26:18.616Z,90.313
2023-02-18T07:27:19.373Z,90.223
2023-02-18T07:28:19.020Z,90.712
2023-02-18T07:29:18.609Z,91.002
2023-02-18T07:30:19.345Z,91.055
2023-02-18T07:31:19.547Z,91.292
2023-02-18T07:32:18.639Z,90.851
2023-02-18T07:33:19.822Z,91.215
2023-02-18T07:34:18.615Z,91.347
2023-02-18T07:35:19.218Z,91.507
2023-02-18T07:36:18.855Z,91.786
2023-02-18T07:37:18.604Z,91.789
2023-02-18T07:38:19.212Z,91.566
2023-02-18T07:39:18.460Z,91.662
2023-02-18T07:40:19.160Z,91.866
2023-02-18T07:41:19.123Z,91.887
2023-02-18T07:42:18.811Z,91.436
2023-02-18T07:43:18.551Z,91.211
2023-02-18T07:44:19.277Z,91.335
2023-02-18T07:45:18.989Z,91.116
2023-02-18T07:46:18.761Z,90.485
2023-02-18T07:47:18.500Z,90.126
2023-02-18T07:48:19.116Z,89.991
2023-02-18T07:49:18.921Z,89.962
2023-02-18T07:50:19.360Z,90.086
2023-02-18T07:51:18.928Z,89.893
2023-02-18T07:52:18.616Z,89.575
2023-02-18T07:53:19.224Z,88.688
2023-02-18T07:54:18.896Z,88.478
2023-02-18T07:55:18.585Z,88.289
2023-02-18T07:56:19.290Z,87.641
2023-02-18T07:57:18.976Z,87.143
2023-02-18T07:58:18.629Z,87.668
2023-02-18T07:59:19.308Z,87.759
2023-02-18T08:00:19.036Z,88.165
2023-02-18T08:01:18.923Z,88.314
2023-02-18T08:02:18.774Z,87.418
2023-02-18T08:03:18.499Z,87.425
2023-02-18T08:04:19.327Z,87.372
2023-02-18T08:05:19.011Z,87.103
2023-02-18T08:06:18.726Z,87.456
2023-02-18T08:07:18.422Z,87.261
2023-02-18T08:08:19.024Z,87.162
2023-02-18T08:09:19.055Z,87.317
2023-02-18T08:10:18.700Z,87.252
2023-02-18T08:11:24.136Z,86.855
2023-02-18T08:12:18.874Z,86.592
2023-02-18T08:13:18.509Z,86.596
2023-02-18T08:14:24.222Z,87.124
2023-02-18T08:15:18.925Z,86.380
2023-02-18T08:16:18.680Z,86.813
2023-02-18T08:17:18.514Z,86.519
2023-02-18T08:18:19.150Z,86.681
2023-02-18T08:19:18.833Z,86.565
2023-02-18T08:20:18.693Z,86.424
2023-02-18T08:21:19.383Z,85.596
2023-02-18T08:22:19.087Z,85.735
2023-02-18T08:23:18.756Z,85.665
2023-02-18T08:24:18.445Z,85.554
2023-02-18T08:25:29.191Z,84.923
2023-02-18T08:27:21.184Z,84.732
2023-02-18T08:28:20.860Z,85.022
2023-02-18T08:29:20.557Z,84.501
2023-02-18T08:30:21.366Z,83.046
2023-02-18T08:31:20.915Z,82.685
2023-02-18T08:33:20.469Z,83.162
2023-02-18T08:34:21.189Z,82.291
2023-02-18T08:35:20.808Z,82.409
2023-02-18T08:36:20.442Z,81.266
2023-02-18T08:39:24.923Z,81.438
2023-02-18T08:40:25.284Z,81.036
2023-02-18T08:41:25.215Z,80.761
2023-02-18T08:42:24.952Z,80.673
2023-02-18T08:43:24.607Z,80.982
2023-02-18T08:44:25.353Z,80.461
2023-02-18T08:45:25.009Z,79.925
2023-02-18T08:46:33.413Z,80.194
2023-02-18T08:48:29.325Z,79.098
2023-02-18T08:49:25.149Z,79.353
2023-02-18T08:50:24.900Z,80.004
2023-02-18T08:51:26.348Z,80.049
2023-02-18T08:52:25.020Z,79.861
2023-02-18T08:53:24.719Z,79.777
2023-02-18T08:55:24.921Z,79.121
2023-02-18T08:56:24.537Z,79.395
2023-02-18T08:57:25.221Z,78.688
2023-02-18T08:58:24.821Z,78.224
2023-02-18T08:59:24.584Z,78.836
2023-02-18T09:00:25.349Z,78.565
2023-02-18T09:01:25.673Z,78.655
2023-02-18T09:02:24.448Z,78.043
2023-02-18T09:03:25.284Z,78.443
2023-02-18T09:04:25.042Z,78.443
2023-02-18T09:05:24.693Z,78.268
2023-02-18T09:06:25.284Z,77.059
2023-02-18T09:07:24.905Z,77.230
2023-02-18T09:08:24.672Z,77.261
2023-02-18T09:09:25.348Z,77.619
2023-02-18T09:10:25.040Z,77.270
2023-02-18T09:11:25.182Z,77.083
2023-02-18T09:12:24.816Z,76.677
2023-02-18T09:13:24.425Z,77.186
2023-02-18T09:14:25.248Z,76.822
2023-02-18T09:15:24.953Z,76.708
2023-02-18T09:16:27.904Z,76.927
2023-02-18T09:17:24.541Z,77.646
2023-02-18T09:18:25.325Z,77.202
2023-02-18T09:19:25.113Z,76.939
2023-02-18T09:20:29.647Z,77.000
2023-02-18T09:21:25.509Z,77.391
2023-02-18T09:23:24.821Z,76.574
2023-02-18T09:24:24.514Z,76.973
2023-02-18T09:25:25.261Z,77.469
2023-02-18T09:26:25.120Z,77.900
2023-02-18T09:27:24.832Z,77.587
2023-02-18T09:28:24.424Z,77.997
2023-02-18T09:30:25.149Z,76.895
2023-02-18T09:31:25.478Z,77.145
2023-02-18T09:32:34.609Z,76.916
2023-02-18T09:33:25.104Z,76.815
2023-02-18T09:35:24.356Z,76.723
2023-02-18T09:36:25.024Z,77.129
2023-02-18T09:37:24.639Z,77.427
2023-02-18T09:38:25.294Z,77.476
2023-02-18T09:39:25.057Z,77.650
2023-02-18T09:40:24.746Z,77.904
2023-02-18T09:41:24.324Z,77.845
2023-02-18T09:43:24.693Z,77.364
2023-02-18T09:44:24.385Z,77.892
2023-02-18T09:46:24.705Z,77.724
2023-02-18T09:47:24.373Z,77.997
2023-02-18T09:48:26.927Z,78.428
2023-02-18T09:49:24.686Z,77.627
2023-02-18T09:51:25.154Z,77.499
2023-02-18T09:52:24.874Z,78.047
2023-02-18T09:53:24.598Z,77.570
2023-02-18T09:54:25.288Z,77.259
2023-02-18T09:55:24.919Z,77.602
2023-02-18T09:56:24.539Z,77.247
2023-02-18T09:57:24.800Z,77.370
2023-02-18T09:59:25.087Z,77.499
2023-02-18T10:00:24.812Z,77.293
2023-02-18T10:01:24.570Z,77.667
2023-02-18T10:02:25.296Z,77.291
2023-02-18T10:04:24.612Z,77.503
2023-02-18T10:05:25.265Z,77.400
2023-02-18T10:06:24.919Z,76.906
2023-02-18T10:07:26.393Z,77.148
2023-02-18T10:08:25.179Z,76.565
2023-02-18T10:09:24.860Z,76.877
2023-02-18T10:11:24.830Z,76.326
2023-02-18T10:12:24.559Z,76.343
2023-02-18T10:13:25.255Z,76.063
2023-02-18T10:14:24.910Z,75.212
2023-02-18T10:15:24.538Z,75.584
2023-02-18T10:16:25.518Z,75.577
2023-02-18T10:17:25.280Z,75.691
2023-02-18T10:18:25.033Z,75.144
2023-02-18T10:19:24.761Z,74.913
2023-02-18T10:20:27.736Z,75.174
2023-02-18T10:21:24.573Z,74.968
2023-02-18T10:22:25.484Z,74.613
2023-02-18T10:23:25.093Z,74.011
2023-02-18T10:24:24.738Z,74.165
2023-02-18T10:25:24.381Z,73.698
2023-02-18T10:26:25.189Z,73.871
2023-02-18T10:27:24.822Z,73.572
2023-02-18T10:29:25.148Z,73.253
2023-02-18T10:30:24.948Z,73.047
2023-02-18T10:31:25.714Z,72.717
2023-02-18T10:32:24.813Z,72.906
2023-02-18T10:33:24.484Z,72.746
2023-02-18T10:34:25.129Z,72.378
2023-02-18T10:35:24.760Z,72.771
2023-02-18T10:36:25.365Z,72.609
2023-02-18T10:37:25.140Z,72.561
2023-02-18T10:38:24.848Z,72.595
2023-02-18T10:39:24.426Z,72.746
2023-02-18T10:40:25.116Z,72.389
2023-02-18T10:41:24.682Z,71.857
2023-02-18T10:42:24.379Z,71.699
2023-02-18T10:44:24.716Z,71.533
2023-02-18T10:45:25.336Z,70.543
2023-02-18T10:47:24.919Z,71.060
2023-02-18T10:48:24.620Z,71.317
2023-02-18T10:49:25.269Z,70.888
2023-02-18T10:50:24.937Z,70.799
2023-02-18T10:51:24.660Z,70.007
2023-02-18T10:52:24.457Z,70.198
2023-02-18T10:53:25.168Z,70.007
2023-02-18T10:54:24.887Z,69.681
2023-02-18T10:55:24.543Z,70.036
2023-02-18T10:56:25.312Z,70.606
2023-02-18T10:57:25.128Z,70.305
2023-02-18T10:58:24.854Z,69.238
2023-02-18T11:00:25.387Z,69.832
2023-02-18T11:01:25.342Z,69.433
2023-02-18T11:02:26.548Z,69.635
2023-02-18T11:03:28.003Z,69.805
2023-02-18T11:05:24.450Z,69.971
2023-02-18T11:06:25.111Z,70.423
2023-02-18T11:08:25.316Z,70.324
2023-02-18T11:09:25.065Z,70.156
2023-02-18T11:11:24.431Z,70.356
2023-02-18T11:12:28.293Z,70.467
2023-02-18T11:13:24.984Z,70.301
2023-02-18T11:14:24.676Z,70.041
2023-02-18T11:15:24.481Z,70.472
2023-02-18T11:16:25.252Z,70.080
2023-02-18T11:17:25.043Z,70.331
2023-02-18T11:18:24.700Z,70.137
2023-02-18T11:19:24.770Z,70.575
2023-02-18T11:20:24.450Z,70.938
2023-02-18T11:21:25.188Z,70.974
2023-02-18T11:22:25.325Z,70.972
2023-02-18T11:24:24.632Z,71.453
2023-02-18T11:25:25.315Z,71.220
2023-02-18T11:26:24.976Z,71.050
2023-02-18T11:27:24.600Z,70.900
2023-02-18T11:28:25.399Z,71.111
2023-02-18T11:29:25.083Z,71.220
2023-02-18T11:30:25.216Z,71.140
2023-02-18T11:31:25.217Z,70.930
2023-02-18T11:32:25.177Z,71.472
2023-02-18T11:34:24.597Z,71.070
2023-02-18T11:35:25.240Z,71.256
2023-02-18T11:36:24.911Z,71.211
2023-02-18T11:37:24.542Z,71.104
2023-02-18T11:38:25.233Z,71.340
2023-02-18T11:39:24.858Z,71.619
2023-02-18T11:40:24.597Z,71.743
2023-02-18T11:41:25.368Z,71.888
2023-02-18T11:42:25.083Z,71.827
2023-02-18T11:43:24.768Z,72.050
2023-02-18T11:44:24.429Z,72.017
2023-02-18T11:45:25.224Z,71.752
2023-02-18T11:46:24.918Z,71.768
2023-02-18T11:47:24.761Z,71.644
2023-02-18T11:48:24.392Z,71.537
2023-02-18T11:49:24.992Z,71.659
2023-02-18T11:50:24.712Z,72.046
2023-02-18T11:51:26.849Z,72.029
2023-02-18T11:52:24.538Z,72.246
2023-02-18T11:53:25.144Z,71.810
2023-02-18T11:54:24.773Z,72.410
2023-02-18T11:55:24.485Z,71.956
2023-02-18T11:56:25.076Z,72.380
2023-02-18T11:57:25.776Z,72.386
2023-02-18T11:58:24.447Z,72.115
2023-02-18T11:59:25.121Z,72.384
2023-02-18T12:00:24.987Z,71.712
2023-02-18T12:01:24.684Z,72.355
2023-02-18T12:02:24.579Z,72.094
2023-02-18T12:03:25.173Z,72.254
2023-02-18T12:04:24.841Z,71.890
2023-02-18T12:06:25.178Z,71.779
2023-02-18T12:07:25.768Z,71.918
2023-02-18T12:08:25.278Z,71.876
2023-02-18T12:09:25.009Z,71.695
2023-02-18T12:10:25.172Z,72.212
2023-02-18T12:11:24.806Z,71.979
2023-02-18T12:12:24.497Z,71.909
2023-02-18T12:13:25.289Z,71.371
2023-02-18T12:14:25.171Z,71.216
2023-02-18T12:15:25.350Z,71.815
2023-02-18T12:16:25.443Z,71.586
2023-02-18T12:17:24.793Z,71.306
2023-02-18T12:18:24.802Z,70.989
2023-02-18T12:19:24.637Z,71.159
2023-02-18T12:21:25.393Z,71.075
2023-02-18T12:22:25.068Z,70.923
2023-02-18T12:23:24.805Z,70.608
2023-02-18T12:24:24.557Z,70.827
2023-02-18T12:25:25.223Z,70.421
2023-02-18T12:26:24.901Z,70.179
2023-02-18T12:27:24.681Z,69.626
2023-02-18T12:28:25.194Z,70.041
2023-02-18T12:29:24.810Z,69.744
2023-02-18T12:30:24.675Z,70.129
2023-02-18T12:31:25.464Z,70.375
2023-02-18T12:32:24.523Z,70.738
2023-02-18T12:33:25.302Z,70.665
2023-02-18T12:34:25.072Z,70.789
2023-02-18T12:35:24.697Z,70.761
2023-02-18T12:36:25.381Z,70.650
2023-02-18T12:37:25.228Z,70.928
2023-02-18T12:38:25.003Z,70.675
2023-02-18T12:39:24.724Z,70.942
2023-02-18T12:41:25.177Z,71.131
2023-02-18T12:42:24.851Z,71.045
2023-02-18T12:43:25.308Z,71.003
2023-02-18T12:44:24.900Z,71.132
2023-02-18T12:45:25.484Z,71.234
2023-02-18T12:46:25.232Z,71.394
2023-02-18T12:47:24.895Z,71.171
2023-02-18T12:48:24.537Z,70.717
2023-02-18T12:49:25.245Z,70.713
2023-02-18T12:50:24.976Z,70.469
2023-02-18T12:51:24.620Z,70.472
2023-02-18T12:52:25.318Z,70.892
2023-02-18T12:53:25.160Z,71.155
2023-02-18T12:54:26.376Z,71.005
2023-02-18T12:55:25.044Z,71.087
2023-02-18T12:56:24.896Z,71.253
2023-02-18T12:58:24.456Z,71.541
2023-02-18T12:59:25.253Z,71.735
2023-02-18T13:01:24.917Z,71.592